Time;durP1;ratioP1;P1;durP2;ratioP2;P2;SDS_P1;SDS_P2;PMS_P1;PMS_P2;Temp;Humidity;BMP_temperature;BMP_pressure;BME280_temperature;BME280_humidity;BME280_pressure;Samples;Min_cycle;Max_cycle;Signal;HPM_P1;HPM_P2
2023/02/27 00:02:24;;;;;;;2.67;2.00;;;-1.30;99.90;;;;;;5053573;28;20634;-70
2023/02/27 00:04:50;;;;;;;2.47;1.70;;;-1.30;99.90;;;;;;5054566;28;20187;-69
2023/02/27 00:07:16;;;;;;;2.13;1.93;;;-1.30;99.90;;;;;;5054124;28;20444;-70
2023/02/27 00:09:42;;;;;;;2.40;2.17;;;-1.30;99.90;;;;;;5052568;28;20476;-70
2023/02/27 00:12:08;;;;;;;2.50;2.07;;;-1.30;99.90;;;;;;5054288;28;20493;-69
2023/02/27 00:14:34;;;;;;;2.07;1.87;;;-1.20;99.90;;;;;;5053782;28;20260;-69
2023/02/27 00:16:59;;;;;;;3.80;2.47;;;-1.20;99.90;;;;;;5053164;28;20603;-69
2023/02/27 00:19:25;;;;;;;4.10;2.10;;;-1.20;99.90;;;;;;5045001;28;20205;-69
2023/02/27 00:21:50;;;;;;;1.83;1.60;;;-1.20;99.90;;;;;;5055149;28;20186;-70
2023/02/27 00:24:16;;;;;;;2.23;2.03;;;-1.30;99.90;;;;;;5048133;28;20182;-70
2023/02/27 00:26:41;;;;;;;2.03;1.80;;;-1.20;99.90;;;;;;5053965;28;20216;-69
2023/02/27 00:29:07;;;;;;;3.07;1.77;;;-1.30;99.90;;;;;;5051580;28;20564;-68
2023/02/27 00:31:33;;;;;;;1.80;1.70;;;-1.30;99.90;;;;;;5053489;28;20189;-69
2023/02/27 00:33:59;;;;;;;3.67;1.90;;;-1.20;99.90;;;;;;5054401;28;20181;-69
2023/02/27 00:36:25;;;;;;;2.63;2.30;;;-1.20;99.90;;;;;;5051514;28;20819;-70
2023/02/27 00:38:50;;;;;;;3.90;1.90;;;-1.10;99.90;;;;;;5056450;28;20854;-70
2023/02/27 00:41:16;;;;;;;2.23;2.00;;;-1.10;99.90;;;;;;5053893;28;20201;-69
2023/02/27 00:43:41;;;;;;;3.43;2.43;;;-1.00;99.90;;;;;;5053683;28;20177;-70
2023/02/27 00:46:08;;;;;;;2.70;2.40;;;-1.10;99.90;;;;;;5051029;28;20185;-72
2023/02/27 00:48:33;;;;;;;2.93;2.50;;;-1.10;99.90;;;;;;5042567;28;20186;-70
2023/02/27 00:50:59;;;;;;;2.83;1.80;;;-1.10;99.90;;;;;;5050452;28;20840;-70
2023/02/27 00:53:24;;;;;;;3.20;2.57;;;-1.20;99.90;;;;;;5053488;28;20661;-70
2023/02/27 00:55:50;;;;;;;2.40;2.17;;;-1.20;99.90;;;;;;5052994;28;20219;-71
2023/02/27 00:58:15;;;;;;;6.60;2.10;;;-1.30;99.90;;;;;;5049018;28;20185;-73
2023/02/27 01:00:41;;;;;;;2.17;1.80;;;-1.30;99.90;;;;;;5052894;28;20207;-70
2023/02/27 01:03:07;;;;;;;4.23;2.90;;;-1.30;99.90;;;;;;5052837;28;20228;-70
2023/02/27 01:05:32;;;;;;;2.50;2.00;;;-1.30;99.90;;;;;;5048645;28;20179;-70
2023/02/27 01:07:58;;;;;;;3.37;2.60;;;-1.40;99.90;;;;;;5049214;28;20619;-71
2023/02/27 01:10:23;;;;;;;4.00;2.30;;;-1.40;99.90;;;;;;5049804;28;20220;-70
2023/02/27 01:12:49;;;;;;;2.67;2.00;;;-1.30;99.90;;;;;;5053502;28;20200;-73
2023/02/27 01:15:14;;;;;;;2.87;2.47;;;-1.30;99.90;;;;;;5043877;28;20817;-71
2023/02/27 01:17:40;;;;;;;2.00;1.90;;;-1.30;99.90;;;;;;5051607;28;20201;-71
2023/02/27 01:20:07;;;;;;;2.23;1.93;;;-1.30;99.90;;;;;;5052108;28;20749;-72
2023/02/27 01:22:33;;;;;;;3.00;2.13;;;-1.30;99.90;;;;;;5048134;28;20194;-70
2023/02/27 01:24:59;;;;;;;2.53;1.77;;;-1.30;99.90;;;;;;5046484;28;20435;-72
2023/02/27 01:27:24;;;;;;;3.47;1.70;;;-1.40;99.90;;;;;;5050490;28;20185;-72
2023/02/27 01:29:50;;;;;;;3.03;1.90;;;-1.50;99.90;;;;;;5051716;28;20198;-71
2023/02/27 01:32:15;;;;;;;3.63;1.90;;;-1.50;99.90;;;;;;5051594;28;20199;-71
2023/02/27 01:34:41;;;;;;;3.73;2.50;;;-1.50;99.90;;;;;;5052833;28;20189;-71
2023/02/27 01:37:06;;;;;;;2.33;2.13;;;-1.50;99.90;;;;;;5051794;28;20209;-71
2023/02/27 01:39:32;;;;;;;3.23;2.53;;;-1.50;99.90;;;;;;5047353;28;20332;-71
2023/02/27 01:41:58;;;;;;;2.10;1.90;;;-1.60;99.90;;;;;;5049606;28;20213;-72
2023/02/27 01:44:27;;;;;;;2.00;1.90;;;-1.50;99.90;;;;;;5052063;28;20265;-72
2023/02/27 01:46:53;;;;;;;2.60;2.40;;;-1.50;99.90;;;;;;5050526;28;20440;-71
2023/02/27 01:49:32;;;;;;;4.17;1.93;;;-1.60;99.90;;;;;;5051637;28;20440;-71
2023/02/27 01:52:04;;;;;;;3.60;2.07;;;-1.60;99.90;;;;;;5051477;28;20327;-70
2023/02/27 01:54:33;;;;;;;2.23;2.03;;;-1.60;99.90;;;;;;5048540;28;20451;-71
2023/02/27 01:57:01;;;;;;;4.40;2.60;;;-1.60;99.90;;;;;;5051579;28;20917;-71
2023/02/27 01:59:28;;;;;;;2.47;1.97;;;-1.60;99.90;;;;;;5049596;28;20446;-72
2023/02/27 02:01:56;;;;;;;2.10;1.83;;;-1.60;99.90;;;;;;5050375;28;20432;-70
2023/02/27 02:04:25;;;;;;;1.90;1.80;;;-1.60;99.90;;;;;;5051042;28;20427;-72
2023/02/27 02:07:02;;;;;;;2.70;2.10;;;-1.60;99.90;;;;;;5050732;28;20440;-71
2023/02/27 02:09:28;;;;;;;2.90;2.57;;;-1.70;99.90;;;;;;5050908;28;20459;-71
2023/02/27 02:11:55;;;;;;;2.73;2.33;;;-1.60;99.90;;;;;;5050540;28;20801;-71
2023/02/27 02:14:20;;;;;;;2.17;2.00;;;-1.60;99.90;;;;;;5049093;28;20813;-71
2023/02/27 02:17:07;;;;;;;2.23;1.80;;;-1.70;99.90;;;;;;5050724;28;20459;-71
2023/02/27 02:20:09;;;;;;;2.40;2.30;;;-1.70;99.90;;;;;;5046338;28;20201;-72
2023/02/27 02:23:21;;;;;;;2.67;2.47;;;-1.80;99.90;;;;;;5045037;28;20439;-72
2023/02/27 02:26:05;;;;;;;2.70;2.07;;;-1.80;99.90;;;;;;5047794;28;20944;-72
2023/02/27 02:29:09;;;;;;;2.60;2.07;;;-1.70;99.90;;;;;;5042318;28;20443;-72
2023/02/27 02:32:01;;;;;;;3.57;2.30;;;-1.70;99.90;;;;;;5024312;28;20444;-71
2023/02/27 02:34:57;;;;;;;2.77;2.10;;;-1.70;99.90;;;;;;5050658;28;20440;-71
2023/02/27 02:37:50;;;;;;;2.50;2.10;;;-1.70;99.90;;;;;;5051183;28;20509;-71
2023/02/27 02:40:18;;;;;;;2.87;2.67;;;-1.70;99.90;;;;;;5049351;28;20456;-71
2023/02/27 02:43:05;;;;;;;3.60;2.90;;;-1.70;99.90;;;;;;5050597;28;20440;-71
2023/02/27 02:45:52;;;;;;;2.43;2.23;;;-1.70;99.90;;;;;;5043167;28;20442;-72
2023/02/27 02:48:28;;;;;;;2.93;2.73;;;-1.60;99.90;;;;;;5046368;28;20434;-71
2023/02/27 02:51:06;;;;;;;4.60;2.43;;;-1.60;99.90;;;;;;5046801;28;20456;-71
2023/02/27 02:53:55;;;;;;;7.63;3.47;;;-1.60;99.90;;;;;;5042851;28;20455;-71
2023/02/27 02:56:27;;;;;;;2.77;2.57;;;-1.60;99.90;;;;;;5050524;28;20459;-71
2023/02/27 02:59:13;;;;;;;4.50;2.60;;;-1.60;99.90;;;;;;5048855;28;20784;-71
2023/02/27 03:02:02;;;;;;;3.83;2.53;;;-1.60;99.90;;;;;;5044300;28;20505;-72
2023/02/27 03:04:32;;;;;;;4.20;2.17;;;-1.60;99.90;;;;;;5049676;28;20436;-70
2023/02/27 03:07:08;;;;;;;2.97;2.30;;;-1.60;99.90;;;;;;5048922;28;20424;-72
2023/02/27 03:09:39;;;;;;;2.40;2.20;;;-1.60;99.90;;;;;;5042234;28;20474;-71
2023/02/27 03:12:09;;;;;;;1.97;1.80;;;-1.60;99.90;;;;;;5051057;28;20463;-71
2023/02/27 03:14:41;;;;;;;5.07;2.70;;;-1.60;99.90;;;;;;5043575;28;20444;-71
2023/02/27 03:17:14;;;;;;;3.33;2.53;;;-1.60;99.90;;;;;;5051124;28;20517;-71
2023/02/27 03:19:46;;;;;;;2.90;2.37;;;-1.60;99.90;;;;;;5050420;28;20448;-71
2023/02/27 03:22:18;;;;;;;2.90;2.60;;;-1.60;99.90;;;;;;5048237;28;20432;-70
2023/02/27 03:24:49;;;;;;;3.40;2.83;;;-1.60;99.90;;;;;;5050508;28;20486;-71
2023/02/27 03:27:16;;;;;;;4.20;2.20;;;-1.70;99.90;;;;;;5049483;28;20436;-71
2023/02/27 03:29:54;;;;;;;3.07;2.83;;;-1.70;99.90;;;;;;5045639;28;20464;-71
2023/02/27 03:32:58;;;;;;;4.50;2.40;;;-1.70;99.90;;;;;;5048767;28;20899;-72
2023/02/27 03:35:38;;;;;;;2.73;2.50;;;-1.70;99.90;;;;;;5003884;28;20449;-71
2023/02/27 03:38:17;;;;;;;5.90;2.50;;;-1.70;99.90;;;;;;5049748;28;20522;-72
2023/02/27 03:40:56;;;;;;;2.83;2.30;;;-1.70;99.90;;;;;;5052003;28;20506;-72
2023/02/27 03:43:28;;;;;;;4.40;2.33;;;-1.70;99.90;;;;;;5054000;28;20439;-71
2023/02/27 03:46:15;;;;;;;2.63;2.43;;;-1.80;99.90;;;;;;5055305;28;20431;-71
2023/02/27 03:48:44;;;;;;;3.13;2.83;;;-1.80;99.90;;;;;;5051527;28;20515;-71
2023/02/27 03:51:19;;;;;;;5.57;3.03;;;-1.70;99.90;;;;;;5050888;28;20466;-72
2023/02/27 03:53:48;;;;;;;3.13;2.83;;;-1.80;99.90;;;;;;5047527;28;20442;-70
2023/02/27 03:56:16;;;;;;;2.50;2.30;;;-1.70;99.90;;;;;;5051766;28;20470;-72
2023/02/27 03:58:42;;;;;;;2.47;2.27;;;-1.80;99.90;;;;;;5051678;28;20448;-71
2023/02/27 04:01:08;;;;;;;4.90;2.20;;;-1.70;99.90;;;;;;5053494;28;20458;-71
2023/02/27 04:03:42;;;;;;;2.67;2.07;;;-1.70;99.90;;;;;;5054178;28;20173;-71
2023/02/27 04:09:06;;;;;;;2.53;2.43;;;-1.80;99.90;;;;;;5052382;28;20824;-71
2023/02/27 04:11:54;;;;;;;3.27;2.63;;;-1.80;99.90;;;;;;5045261;28;20463;-71
2023/02/27 04:14:37;;;;;;;4.63;2.63;;;-1.80;99.90;;;;;;5051532;28;20462;-71
2023/02/27 04:17:16;;;;;;;3.33;2.50;;;-1.80;99.90;;;;;;5047428;28;20452;-70
2023/02/27 04:20:06;;;;;;;3.20;2.87;;;-1.80;99.90;;;;;;5054014;28;20479;-71
2023/02/27 04:22:38;;;;;;;2.27;2.07;;;-1.80;99.90;;;;;;5047749;28;20436;-72
2023/02/27 04:25:21;;;;;;;7.43;2.67;;;-1.90;99.90;;;;;;5052641;28;20529;-71
2023/02/27 04:28:06;;;;;;;5.33;2.70;;;-1.80;99.90;;;;;;5054156;28;20428;-71
2023/02/27 04:31:00;;;;;;;3.50;3.20;;;-1.90;99.90;;;;;;5042700;28;20456;-72
2023/02/27 04:33:42;;;;;;;2.93;2.73;;;-1.90;99.90;;;;;;5052776;28;20426;-72
2023/02/27 04:36:16;;;;;;;4.40;3.50;;;-1.90;99.90;;;;;;5053420;28;20809;-72
2023/02/27 04:39:16;;;;;;;3.63;3.33;;;-2.00;99.90;;;;;;5052422;28;20518;-72
2023/02/27 04:41:47;;;;;;;5.70;3.87;;;-2.00;99.90;;;;;;5048840;28;20439;-71
2023/02/27 04:44:15;;;;;;;4.50;2.90;;;-2.00;99.90;;;;;;5050620;28;20810;-71
2023/02/27 04:46:44;;;;;;;5.47;3.57;;;-2.00;99.90;;;;;;5052507;28;20432;-71
2023/02/27 04:49:16;;;;;;;3.90;3.60;;;-2.00;99.90;;;;;;5053083;28;20428;-71
2023/02/27 04:52:15;;;;;;;3.80;3.50;;;-2.00;99.90;;;;;;5052587;28;20443;-71
2023/02/27 04:55:10;;;;;;;3.57;3.27;;;-2.00;99.90;;;;;;5047696;28;20478;-71
2023/02/27 04:57:47;;;;;;;6.33;3.87;;;-2.00;99.90;;;;;;5051632;28;20608;-71
2023/02/27 05:00:15;;;;;;;4.77;3.67;;;-2.10;99.90;;;;;;5051232;28;20462;-71
2023/02/27 05:02:49;;;;;;;4.30;3.00;;;-2.10;99.90;;;;;;5052396;28;20443;-71
2023/02/27 05:05:19;;;;;;;3.70;3.30;;;-2.10;99.90;;;;;;5048699;28;20440;-71
2023/02/27 05:07:56;;;;;;;4.40;3.90;;;-2.10;99.90;;;;;;5052793;28;20455;-71
2023/02/27 05:10:35;;;;;;;3.53;2.53;;;-2.10;99.90;;;;;;5064313;22;20514;-69
2023/02/27 05:13:15;;;;;;;3.43;3.13;;;-2.10;99.90;;;;;;5049308;28;20951;-67
2023/02/27 05:15:55;;;;;;;4.87;3.20;;;-2.10;99.90;;;;;;5039773;28;20432;-68
2023/02/27 05:18:21;;;;;;;3.80;3.40;;;-2.20;99.90;;;;;;5046744;28;20531;-68
2023/02/27 05:20:58;;;;;;;4.83;4.03;;;-2.20;99.90;;;;;;5031279;28;20490;-68
2023/02/27 05:23:35;;;;;;;3.47;3.13;;;-2.20;99.90;;;;;;5028207;28;20428;-67
2023/02/27 05:26:19;;;;;;;4.07;3.10;;;-2.20;99.90;;;;;;5032278;28;20865;-69
2023/02/27 05:29:03;;;;;;;6.43;3.50;;;-2.20;99.90;;;;;;5028364;28;20437;-68
2023/02/27 05:31:41;;;;;;;4.43;3.43;;;-2.30;99.90;;;;;;5024305;28;20457;-68
2023/02/27 05:34:09;;;;;;;5.87;4.30;;;-2.30;99.90;;;;;;5018526;28;20438;-68
2023/02/27 05:36:41;;;;;;;6.37;3.50;;;-2.20;99.90;;;;;;5026686;28;20457;-68
2023/02/27 05:39:09;;;;;;;6.40;3.73;;;-2.30;99.90;;;;;;5028786;28;20967;-68
2023/02/27 05:41:46;;;;;;;6.43;3.13;;;-2.20;99.90;;;;;;5028736;28;20460;-69
2023/02/27 05:44:26;;;;;;;4.90;4.23;;;-2.20;99.90;;;;;;5028074;28;20523;-68
2023/02/27 05:46:57;;;;;;;4.40;3.90;;;-2.20;99.90;;;;;;5027197;28;20452;-68
2023/02/27 05:49:31;;;;;;;8.07;3.40;;;-2.30;99.90;;;;;;5027213;28;20464;-68
2023/02/27 05:52:01;;;;;;;4.67;3.13;;;-2.30;99.90;;;;;;5027017;28;20443;-67
2023/02/27 05:54:42;;;;;;;3.37;3.07;;;-2.30;99.90;;;;;;5029172;28;20442;-68
2023/02/27 05:57:12;;;;;;;4.03;3.63;;;-2.30;99.90;;;;;;5027992;28;20464;-68
2023/02/27 05:59:59;;;;;;;4.97;3.37;;;-2.40;99.90;;;;;;5027977;28;20447;-69
2023/02/27 06:02:25;;;;;;;4.60;3.70;;;-2.30;99.90;;;;;;5026238;28;20858;-68
2023/02/27 06:04:50;;;;;;;5.70;4.20;;;-2.30;99.90;;;;;;5021474;28;20425;-69
2023/02/27 06:07:17;;;;;;;4.23;3.67;;;-2.40;99.90;;;;;;5025752;28;20186;-67
2023/02/27 06:09:44;;;;;;;5.30;3.90;;;-2.30;99.90;;;;;;5028878;28;20209;-69
2023/02/27 06:12:09;;;;;;;7.10;3.47;;;-2.30;99.90;;;;;;5029059;28;20441;-68
2023/02/27 06:14:35;;;;;;;5.07;3.57;;;-2.30;99.90;;;;;;5025743;28;20869;-67
2023/02/27 06:17:01;;;;;;;3.50;3.20;;;-2.30;99.90;;;;;;5023633;28;20289;-69
2023/02/27 06:19:26;;;;;;;4.40;3.80;;;-2.30;99.90;;;;;;5027181;28;20243;-68
2023/02/27 06:21:52;;;;;;;4.77;3.90;;;-2.30;99.90;;;;;;5028654;28;20952;-68
2023/02/27 06:24:18;;;;;;;5.67;4.97;;;-2.30;99.90;;;;;;5029307;28;20616;-68
2023/02/27 06:26:43;;;;;;;3.97;3.40;;;-2.30;99.90;;;;;;5022791;28;20178;-68
2023/02/27 06:29:09;;;;;;;5.10;4.00;;;-2.30;99.90;;;;;;5026937;28;20187;-68
2023/02/27 06:31:34;;;;;;;3.57;3.17;;;-2.30;99.90;;;;;;5029868;28;20301;-68
2023/02/27 06:34:00;;;;;;;7.13;3.80;;;-2.30;99.90;;;;;;5027221;28;20182;-68
2023/02/27 06:36:27;;;;;;;5.10;3.80;;;-2.30;99.90;;;;;;5029871;28;20199;-68
2023/02/27 06:38:53;;;;;;;6.63;4.10;;;-2.20;99.90;;;;;;5030028;28;20793;-67
2023/02/27 06:41:18;;;;;;;8.30;3.20;;;-2.20;99.90;;;;;;5028470;28;20456;-68
2023/02/27 06:43:44;;;;;;;4.93;3.83;;;-2.20;99.90;;;;;;5025627;28;20620;-68
2023/02/27 06:46:09;;;;;;;5.10;4.60;;;-2.10;99.90;;;;;;5027090;28;20182;-68
2023/02/27 06:48:35;;;;;;;8.17;4.33;;;-2.00;99.90;;;;;;5023332;28;20186;-68
2023/02/27 06:51:02;;;;;;;6.63;5.13;;;-1.90;99.90;;;;;;5031666;28;20218;-68
2023/02/27 06:53:28;;;;;;;4.63;4.23;;;-1.70;99.90;;;;;;5021362;28;20544;-69
2023/02/27 06:55:54;;;;;;;7.87;5.33;;;-1.40;99.90;;;;;;5025802;28;20479;-69
2023/02/27 06:58:19;;;;;;;5.97;4.63;;;-1.10;99.90;;;;;;5016048;28;21018;-69
2023/02/27 07:00:45;;;;;;;11.10;5.63;;;-0.80;99.90;;;;;;5026035;28;20200;-68
2023/02/27 07:03:11;;;;;;;17.60;7.57;;;-0.60;99.90;;;;;;5029538;28;20273;-70
2023/02/27 07:05:37;;;;;;;5.70;4.33;;;-0.40;99.90;;;;;;5022101;28;20217;-69
2023/02/27 07:08:03;;;;;;;15.10;7.30;;;-0.40;99.90;;;;;;5016238;28;20849;-69
2023/02/27 07:10:29;;;;;;;12.07;7.40;;;-0.20;99.90;;;;;;5026991;28;20297;-71
2023/02/27 07:12:54;;;;;;;12.20;6.20;;;-0.10;99.90;;;;;;5023147;28;20563;-71
2023/02/27 07:15:20;;;;;;;12.03;5.60;;;0.00;99.90;;;;;;5026635;28;20429;-69
2023/02/27 07:17:46;;;;;;;8.80;5.23;;;0.20;99.90;;;;;;5016681;28;20429;-67
2023/02/27 07:20:12;;;;;;;9.23;4.73;;;0.40;99.90;;;;;;5020860;28;20488;-69
2023/02/27 07:22:38;;;;;;;8.53;5.13;;;0.60;99.90;;;;;;5023875;28;20183;-70
2023/02/27 07:25:04;;;;;;;8.00;5.27;;;0.70;99.90;;;;;;5028146;28;20552;-70
2023/02/27 07:27:30;;;;;;;11.50;4.67;;;0.90;99.90;;;;;;5020024;28;20426;-71
2023/02/27 07:29:56;;;;;;;9.93;4.87;;;1.00;99.90;;;;;;5011225;28;20445;-70
2023/02/27 07:32:21;;;;;;;9.13;4.07;;;1.10;99.90;;;;;;5011735;28;20447;-70
2023/02/27 07:34:47;;;;;;;10.93;5.50;;;1.10;99.90;;;;;;5010770;28;20183;-70
2023/02/27 07:37:13;;;;;;;5.10;4.20;;;1.10;99.90;;;;;;5011917;28;20194;-71
2023/02/27 07:39:38;;;;;;;6.30;4.70;;;1.20;99.90;;;;;;5011077;28;20175;-69
2023/02/27 07:42:04;;;;;;;6.63;4.90;;;1.40;99.90;;;;;;5011958;28;20248;-70
2023/02/27 07:44:29;;;;;;;4.50;3.80;;;1.60;99.90;;;;;;5012175;28;20207;-70
2023/02/27 07:46:55;;;;;;;4.30;3.60;;;1.60;99.90;;;;;;5015234;28;20175;-69
2023/02/27 07:49:21;;;;;;;5.47;4.73;;;1.60;99.90;;;;;;5015655;28;20179;-69
2023/02/27 07:51:46;;;;;;;4.67;4.10;;;1.80;99.90;;;;;;5011874;28;20214;-69
2023/02/27 07:54:12;;;;;;;4.70;3.93;;;2.00;99.90;;;;;;5011779;28;20175;-68
2023/02/27 07:56:38;;;;;;;4.90;3.93;;;2.10;99.90;;;;;;5011970;28;20235;-69
2023/02/27 07:59:03;;;;;;;4.43;4.00;;;2.30;99.90;;;;;;5009324;28;20167;-71
2023/02/27 08:01:29;;;;;;;3.57;3.27;;;2.60;99.90;;;;;;4999105;28;20463;-73
2023/02/27 08:03:55;;;;;;;6.70;4.80;;;2.80;99.90;;;;;;5017141;28;20175;-71
2023/02/27 08:06:22;;;;;;;4.37;3.97;;;2.90;99.90;;;;;;5022294;28;20178;-69
2023/02/27 08:08:48;;;;;;;5.03;3.63;;;3.00;99.90;;;;;;5009237;28;20436;-74
2023/02/27 08:11:14;;;;;;;4.83;3.80;;;3.10;99.90;;;;;;5007160;28;20468;-72
2023/02/27 08:13:40;;;;;;;4.30;3.90;;;3.30;99.90;;;;;;5010564;28;20665;-71
2023/02/27 08:16:06;;;;;;;8.47;4.57;;;3.50;99.90;;;;;;5007844;28;20503;-73
2023/02/27 08:18:31;;;;;;;4.93;4.40;;;3.50;99.90;;;;;;5015648;28;20183;-69
2023/02/27 08:20:57;;;;;;;4.20;3.57;;;3.80;99.90;;;;;;5010740;28;20453;-70
2023/02/27 08:23:22;;;;;;;5.00;4.43;;;3.70;99.90;;;;;;5023158;28;20245;-72
2023/02/27 08:25:48;;;;;;;4.87;4.23;;;3.80;99.90;;;;;;5032208;28;20185;-70
2023/02/27 08:28:14;;;;;;;7.33;3.37;;;3.90;99.90;;;;;;5026102;28;20209;-72
2023/02/27 08:30:39;;;;;;;4.80;4.30;;;4.20;99.90;;;;;;5011450;28;20199;-71
2023/02/27 08:33:05;;;;;;;7.40;3.60;;;4.10;99.90;;;;;;5029517;28;20249;-70
2023/02/27 08:35:31;;;;;;;3.80;3.50;;;4.40;99.90;;;;;;5034265;28;20181;-71
2023/02/27 08:37:56;;;;;;;4.97;4.00;;;4.70;99.90;;;;;;5030459;28;20257;-71
2023/02/27 08:40:22;;;;;;;3.77;3.57;;;5.10;99.90;;;;;;5024193;28;20206;-71
2023/02/27 08:42:50;;;;;;;5.87;3.27;;;5.30;99.90;;;;;;5014819;28;20175;-71
2023/02/27 08:45:16;;;;;;;3.90;3.40;;;5.60;99.90;;;;;;5027839;28;20174;-71
2023/02/27 08:47:44;;;;;;;4.43;3.43;;;5.80;99.90;;;;;;5033867;28;20774;-71
2023/02/27 08:50:11;;;;;;;3.70;3.40;;;6.10;99.90;;;;;;5024918;28;20214;-71
2023/02/27 08:52:37;;;;;;;6.87;4.07;;;6.50;98.50;;;;;;5012607;28;20429;-71
2023/02/27 08:55:03;;;;;;;3.33;3.03;;;6.80;96.90;;;;;;5029436;28;20452;-70
2023/02/27 08:57:28;;;;;;;6.37;3.50;;;6.80;94.90;;;;;;5032180;28;20460;-72
2023/02/27 08:59:54;;;;;;;3.33;3.03;;;6.90;94.40;;;;;;5027748;28;20275;-73
2023/02/27 09:02:22;;;;;;;5.30;3.07;;;7.50;93.40;;;;;;5014315;28;20173;-72
2023/02/27 09:04:48;;;;;;;3.17;2.97;;;7.50;91.20;;;;;;5017180;28;20175;-72
2023/02/27 09:07:13;;;;;;;3.03;2.83;;;7.90;90.90;;;;;;5013765;28;20425;-72
2023/02/27 09:09:39;;;;;;;3.70;3.40;;;7.90;88.50;;;;;;5019722;28;20795;-71
2023/02/27 09:12:04;;;;;;;3.73;3.20;;;8.20;87.90;;;;;;5012655;28;20693;-70
2023/02/27 09:14:30;;;;;;;3.70;2.90;;;8.60;84.70;;;;;;5022193;28;20265;-72
2023/02/27 09:16:57;;;;;;;4.07;3.77;;;8.80;83.00;;;;;;5030275;28;20224;-70
2023/02/27 09:19:22;;;;;;;6.00;3.70;;;9.30;81.40;;;;;;5031085;28;20179;-72
2023/02/27 09:21:48;;;;;;;3.77;3.47;;;9.90;77.00;;;;;;5026794;28;20503;-71
2023/02/27 09:24:13;;;;;;;4.87;3.60;;;9.80;74.70;;;;;;5012171;28;20241;-70
2023/02/27 09:26:39;;;;;;;3.70;3.30;;;9.60;74.30;;;;;;5018431;28;20182;-71
2023/02/27 09:29:04;;;;;;;3.27;3.00;;;10.40;70.80;;;;;;5011096;28;20568;-71
2023/02/27 09:31:30;;;;;;;5.00;3.50;;;9.90;69.40;;;;;;5023386;28;20206;-71
2023/02/27 09:33:56;;;;;;;5.70;3.27;;;10.00;69.90;;;;;;5032864;28;20189;-71
2023/02/27 09:36:22;;;;;;;5.03;2.93;;;10.90;68.40;;;;;;5031602;28;20686;-71
2023/02/27 09:38:47;;;;;;;3.87;3.57;;;11.50;64.40;;;;;;5019646;28;20636;-71
2023/02/27 09:41:31;;;;;;;3.33;3.00;;;10.70;61.60;;;;;;5014838;28;20458;-71
2023/02/27 09:43:57;;;;;;;3.90;3.60;;;11.00;63.70;;;;;;5020961;28;20185;-71
2023/02/27 09:46:24;;;;;;;4.27;3.73;;;11.20;60.50;;;;;;5032793;28;20785;-71
2023/02/27 09:48:53;;;;;;;3.63;3.33;;;10.40;60.90;;;;;;5022042;28;20309;-70
2023/02/27 09:51:19;;;;;;;4.10;2.90;;;11.40;61.30;;;;;;5022281;28;21012;-71
2023/02/27 09:53:48;;;;;;;4.20;3.80;;;11.50;59.10;;;;;;5032670;28;20775;-71
2023/02/27 09:56:38;;;;;;;4.67;2.57;;;12.30;58.80;;;;;;5021952;28;20899;-71
2023/02/27 09:59:18;;;;;;;3.30;3.00;;;13.20;56.90;;;;;;5011670;28;20414;-72
2023/02/27 10:02:18;;;;;;;5.03;3.50;;;13.10;53.10;;;;;;5016072;28;20451;-72
2023/02/27 10:05:12;;;;;;;4.87;3.10;;;13.00;53.00;;;;;;5032467;28;20818;-72
2023/02/27 10:07:47;;;;;;;4.47;3.03;;;12.70;53.40;;;;;;5021600;28;20511;-72
2023/02/27 10:10:19;;;;;;;3.93;3.33;;;12.90;52.20;;;;;;5016401;28;20471;-71
2023/02/27 10:12:45;;;;;;;2.87;2.67;;;13.80;50.00;;;;;;5031031;28;20433;-71
2023/02/27 10:15:40;;;;;;;6.00;2.33;;;13.40;47.40;;;;;;5031784;28;21020;-71
2023/02/27 10:18:22;;;;;;;3.00;2.63;;;11.60;48.30;;;;;;5031831;28;20174;-72
2023/02/27 10:20:55;;;;;;;2.73;2.43;;;10.60;50.10;;;;;;5019347;28;20856;-72
2023/02/27 10:23:34;;;;;;;3.17;2.37;;;9.90;50.60;;;;;;5012803;28;20496;-71
2023/02/27 10:26:01;;;;;;;3.03;2.77;;;10.80;51.10;;;;;;5011992;28;21475;-72
2023/02/27 10:28:28;;;;;;;3.60;2.60;;;11.60;48.70;;;;;;5012257;28;20428;-71
2023/02/27 10:30:57;;;;;;;2.60;2.40;;;11.80;47.90;;;;;;5010828;28;20444;-71
2023/02/27 10:33:38;;;;;;;3.33;3.03;;;11.70;47.70;;;;;;5012575;28;20425;-72
2023/02/27 10:36:10;;;;;;;4.40;3.50;;;12.00;46.80;;;;;;5012733;28;20457;-71
2023/02/27 10:38:43;;;;;;;3.17;2.73;;;10.90;47.00;;;;;;5019474;28;20432;-70
2023/02/27 10:41:15;;;;;;;2.67;2.47;;;11.40;47.50;;;;;;5022239;28;20451;-71
2023/02/27 10:43:42;;;;;;;2.30;2.10;;;11.70;47.00;;;;;;5026537;28;20421;-73
2023/02/27 10:46:24;;;;;;;4.30;2.23;;;12.60;46.00;;;;;;5031844;28;20437;-71
2023/02/27 10:48:50;;;;;;;3.87;2.87;;;12.00;45.20;;;;;;5030784;28;21016;-71
2023/02/27 10:51:35;;;;;;;6.53;2.70;;;11.60;45.60;;;;;;5023355;28;20454;-70
2023/02/27 10:54:25;;;;;;;2.97;2.77;;;10.80;44.90;;;;;;5032234;28;20258;-70
2023/02/27 10:56:54;;;;;;;4.03;2.97;;;10.90;45.80;;;;;;5016671;28;20454;-70
2023/02/27 10:59:34;;;;;;;4.90;3.50;;;11.80;45.00;;;;;;5011277;28;20862;-70
2023/02/27 11:02:02;;;;;;;6.90;3.50;;;12.20;44.00;;;;;;5016627;28;20964;-71
2023/02/27 11:04:36;;;;;;;5.50;2.60;;;11.40;44.20;;;;;;5031989;28;20475;-71
2023/02/27 11:07:08;;;;;;;3.77;2.83;;;11.20;43.90;;;;;;5029973;28;20433;-72
2023/02/27 11:09:35;;;;;;;2.60;2.40;;;11.20;44.50;;;;;;5014243;28;20496;-71
2023/02/27 11:12:15;;;;;;;4.03;2.63;;;12.40;45.30;;;;;;5026084;28;20444;-70
2023/02/27 11:14:49;;;;;;;2.93;2.70;;;12.80;42.70;;;;;;5022625;28;20767;-71
2023/02/27 11:17:32;;;;;;;3.20;2.30;;;11.60;43.10;;;;;;5033521;28;20464;-73
2023/02/27 11:20:00;;;;;;;2.90;2.43;;;11.10;44.30;;;;;;5059730;23;21107;-71
2023/02/27 11:22:28;;;;;;;3.43;2.63;;;11.70;44.60;;;;;;5050756;28;20424;-69
2023/02/27 11:25:17;;;;;;;4.10;2.90;;;12.20;43.80;;;;;;5050684;28;20474;-69
2023/02/27 11:27:45;;;;;;;2.63;2.43;;;12.30;43.50;;;;;;5047888;28;20428;-70
2023/02/27 11:30:31;;;;;;;3.00;2.80;;;13.00;43.00;;;;;;5036630;28;21346;-69
2023/02/27 11:33:00;;;;;;;2.60;2.40;;;14.40;41.40;;;;;;5035600;28;20432;-69
2023/02/27 11:35:33;;;;;;;5.60;2.60;;;13.80;39.80;;;;;;5043718;28;20786;-70
2023/02/27 11:38:15;;;;;;;3.33;3.03;;;13.30;40.70;;;;;;5051123;28;20459;-70
2023/02/27 11:40:50;;;;;;;5.97;2.33;;;13.40;40.90;;;;;;5050072;28;20485;-70
2023/02/27 11:43:28;;;;;;;3.27;2.97;;;12.10;41.40;;;;;;5050859;28;20927;-70
2023/02/27 11:46:01;;;;;;;3.03;2.73;;;10.80;43.40;;;;;;5051830;28;20879;-69
2023/02/27 11:48:36;;;;;;;4.20;2.93;;;11.50;43.30;;;;;;5051119;28;20446;-71
2023/02/27 11:51:31;;;;;;;2.77;2.50;;;12.90;42.70;;;;;;5049104;28;20465;-70
2023/02/27 11:54:12;;;;;;;2.80;2.60;;;14.50;40.70;;;;;;5051508;28;20400;-69
2023/02/27 11:56:46;;;;;;;6.90;3.30;;;14.10;40.00;;;;;;5055166;28;20956;-70
2023/02/27 11:59:19;;;;;;;3.90;3.17;;;14.10;39.50;;;;;;5055021;28;20431;-69
2023/02/27 12:02:12;;;;;;;4.63;3.37;;;12.90;40.70;;;;;;5053187;28;20420;-70
2023/02/27 12:04:55;;;;;;;3.07;2.87;;;11.30;42.50;;;;;;5035258;28;20956;-70
2023/02/27 12:07:36;;;;;;;3.30;2.90;;;10.60;43.70;;;;;;5035241;28;20451;-70
2023/02/27 12:10:23;;;;;;;6.80;3.90;;;10.80;44.50;;;;;;5042242;28;21264;-69
2023/02/27 12:12:50;;;;;;;4.20;2.80;;;10.10;44.80;;;;;;5052142;28;20848;-69
2023/02/27 12:15:40;;;;;;;2.80;2.60;;;10.50;44.80;;;;;;5052187;28;20510;-69
2023/02/27 12:18:30;;;;;;;7.23;4.80;;;9.60;45.50;;;;;;5054795;28;20792;-69
2023/02/27 12:21:03;;;;;;;2.87;2.50;;;9.20;47.10;;;;;;5050625;28;21041;-68
2023/02/27 12:23:44;;;;;;;4.77;2.80;;;7.70;47.40;;;;;;5054821;28;20422;-69
2023/02/27 12:26:13;;;;;;;2.83;2.60;;;7.10;48.80;;;;;;5036096;28;20435;-69
2023/02/27 12:29:12;;;;;;;3.57;2.57;;;7.20;48.70;;;;;;5053170;28;20428;-69
2023/02/27 12:31:45;;;;;;;3.37;2.60;;;6.90;49.20;;;;;;5050930;28;20436;-69
2023/02/27 12:34:24;;;;;;;3.60;2.40;;;6.60;50.10;;;;;;5053876;28;20477;-69
2023/02/27 12:36:51;;;;;;;3.50;2.67;;;8.90;49.00;;;;;;5034781;28;20453;-73
2023/02/27 12:39:22;;;;;;;2.30;2.10;;;9.50;50.20;;;;;;5033802;28;20432;-70
2023/02/27 12:42:12;;;;;;;2.83;2.63;;;9.20;46.90;;;;;;5048402;28;20416;-71
2023/02/27 12:45:01;;;;;;;3.20;2.90;;;8.60;48.40;;;;;;5054258;28;20408;-70
2023/02/27 12:48:14;;;;;;;2.90;2.53;;;8.10;48.90;;;;;;5053806;28;20416;-70
2023/02/27 12:50:53;;;;;;;3.10;2.60;;;8.30;50.40;;;;;;4988480;28;20810;-72
2023/02/27 12:53:33;;;;;;;5.37;3.30;;;10.60;47.70;;;;;;4991397;28;20525;-71
2023/02/27 12:56:20;;;;;;;4.13;3.10;;;11.50;45.60;;;;;;5032158;28;20520;-70
2023/02/27 12:58:48;;;;;;;3.07;2.87;;;9.50;46.40;;;;;;5052304;28;20412;-70
2023/02/27 13:01:26;;;;;;;2.80;2.20;;;8.00;48.50;;;;;;5050284;28;20776;-70
2023/02/27 13:03:59;;;;;;;3.43;3.13;;;6.50;50.60;;;;;;5053923;28;20420;-71
2023/02/27 13:06:34;;;;;;;3.20;2.60;;;5.90;52.20;;;;;;5052195;28;20416;-70
2023/02/27 13:09:24;;;;;;;2.97;2.07;;;6.80;52.80;;;;;;5053007;28;20816;-71
2023/02/27 13:11:53;;;;;;;2.23;2.03;;;8.90;49.20;;;;;;5043767;28;20482;-71
2023/02/27 13:14:45;;;;;;;2.80;2.40;;;9.10;47.90;;;;;;5049670;28;20432;-70
2023/02/27 13:17:19;;;;;;;3.53;2.57;;;10.10;46.70;;;;;;5051929;28;20502;-71
2023/02/27 13:20:24;;;;;;;2.87;2.60;;;9.40;47.40;;;;;;5042087;28;20971;-70